createdAt,value
2022-11-04T00:07:14.231Z,16
2022-11-04T00:27:57.002Z,15
2022-11-04T00:33:10.539Z,16
2022-11-04T00:43:32.456Z,16
2022-11-04T01:04:15.398Z,15
2022-11-04T01:30:08.601Z,15
2022-11-04T01:56:02.022Z,15
2022-11-04T04:10:26.387Z,14
2022-11-04T05:02:10.524Z,15
2022-11-04T05:43:32.462Z,15
2022-11-04T05:48:44.521Z,15
2022-11-04T05:59:07.921Z,16
2022-11-04T06:04:20.006Z,16
2022-11-04T06:09:32.096Z,16
2022-11-04T06:14:44.354Z,16
2022-11-04T06:19:56.560Z,16
2022-11-04T06:25:08.553Z,15
2022-11-04T06:30:20.590Z,16
2022-11-04T06:35:32.094Z,15
2022-11-04T06:40:43.972Z,15
2022-11-04T06:45:56.300Z,16
2022-11-04T06:51:08.282Z,16
2022-11-04T06:56:20.097Z,16
2022-11-04T07:01:32.569Z,16
2022-11-04T07:06:45.485Z,16
2022-11-04T07:11:57.749Z,16
2022-11-04T07:17:10.124Z,17
2022-11-04T07:22:22.179Z,17
2022-11-04T07:27:34.318Z,17
2022-11-04T07:32:46.463Z,17
2022-11-04T07:37:58.755Z,17
2022-11-04T07:43:10.730Z,17
2022-11-04T07:48:22.805Z,17
2022-11-04T07:53:34.999Z,17
2022-11-04T07:58:47.190Z,17
2022-11-04T08:03:59.185Z,17
2022-11-04T08:09:11.432Z,17
2022-11-04T08:14:23.780Z,17
2022-11-04T08:19:36.016Z,17
2022-11-04T08:24:47.941Z,17
2022-11-04T08:30:00.080Z,17
2022-11-04T08:35:12.075Z,17
2022-11-04T08:40:24.347Z,17
2022-11-04T08:45:40.108Z,18
2022-11-04T08:50:51.368Z,18
2022-11-04T08:56:03.390Z,18
2022-11-04T09:01:15.600Z,18
2022-11-04T09:06:28.137Z,18
2022-11-04T09:11:40.310Z,18
2022-11-04T09:16:52.515Z,18
2022-11-04T09:22:05.092Z,18
2022-11-04T09:27:17.378Z,18
2022-11-04T09:32:29.481Z,19
2022-11-04T09:37:42.273Z,19
2022-11-04T09:42:54.780Z,19
2022-11-04T09:48:06.840Z,19
2022-11-04T09:53:19.506Z,19
2022-11-04T09:58:31.797Z,19
2022-11-04T10:03:44.079Z,19
2022-11-04T10:08:57.037Z,19
2022-11-04T10:14:09.270Z,19
2022-11-04T10:19:21.264Z,18
2022-11-04T10:24:33.632Z,18
2022-11-04T10:29:45.664Z,18
2022-11-04T10:34:57.972Z,19
2022-11-04T10:40:10.591Z,19
2022-11-04T10:45:30.379Z,19
2022-11-04T10:50:47.330Z,19
2022-11-04T10:55:59.492Z,19
2022-11-04T11:01:15.791Z,20
2022-11-04T11:06:30.639Z,20
2022-11-04T11:11:44.380Z,21
2022-11-04T11:22:06.825Z,20
2022-11-04T11:27:18.675Z,20
2022-11-04T11:32:31.678Z,21
2022-11-04T11:37:44.985Z,22
2022-11-04T11:48:09.009Z,22
2022-11-04T11:53:21.987Z,22
2022-11-04T12:06:18.650Z,23
2022-11-04T12:16:37.693Z,23
2022-11-04T12:21:50.090Z,23
2022-11-04T12:27:01.662Z,23
2022-11-04T12:42:36.298Z,23
2022-11-04T12:47:48.300Z,23
2022-11-04T13:13:38.226Z,19
2022-11-04T13:18:49.798Z,20
2022-11-04T13:24:03.090Z,21
2022-11-04T13:29:16.028Z,21
2022-11-04T13:34:34.931Z,20
2022-11-04T13:39:51.065Z,21
2022-11-04T13:50:14.408Z,21
2022-11-04T14:05:45.976Z,18
2022-11-04T14:10:57.992Z,19
2022-11-04T14:16:09.894Z,18
2022-11-04T14:21:21.868Z,18
2022-11-04T14:26:33.720Z,18
2022-11-04T14:31:46.631Z,18
2022-11-04T14:36:58.502Z,18
2022-11-04T14:42:10.716Z,18
2022-11-04T14:47:22.495Z,18
2022-11-04T14:52:34.488Z,18
2022-11-04T14:57:46.337Z,17
2022-11-04T15:02:58.236Z,17
2022-11-04T15:08:10.375Z,18
2022-11-04T15:13:22.404Z,18
2022-11-04T15:18:34.611Z,18
2022-11-04T15:23:46.972Z,17
2022-11-04T15:28:58.873Z,17
2022-11-04T15:34:15.020Z,17
2022-11-04T15:39:29.762Z,17
2022-11-04T15:44:41.430Z,17
2022-11-04T15:49:53.335Z,17
2022-11-04T15:55:05.679Z,16
2022-11-04T16:00:17.336Z,16
2022-11-04T16:05:29.137Z,16
2022-11-04T16:10:42.041Z,16
2022-11-04T16:15:53.655Z,16
2022-11-04T16:21:05.465Z,16
2022-11-04T16:26:17.714Z,16
2022-11-04T16:31:29.369Z,16
2022-11-04T16:36:41.623Z,16
2022-11-04T16:41:53.516Z,16
2022-11-04T16:47:05.272Z,16
2022-11-04T16:52:17.158Z,16
2022-11-04T16:57:29.023Z,16
2022-11-04T17:02:40.881Z,16
2022-11-04T17:08:05.407Z,15
2022-11-04T17:13:15.285Z,15
2022-11-04T17:18:26.969Z,15
2022-11-04T17:23:38.634Z,15
2022-11-04T17:28:50.441Z,15
2022-11-04T17:34:02.402Z,15
2022-11-04T17:39:14.389Z,15
2022-11-04T17:44:26.339Z,15
2022-11-04T17:49:38.164Z,15
2022-11-04T17:54:49.924Z,15
2022-11-04T18:00:01.768Z,15
2022-11-04T18:05:13.454Z,14
2022-11-04T18:10:25.378Z,14
2022-11-04T18:15:37.326Z,14
2022-11-04T18:20:49.006Z,14
2022-11-04T18:26:00.774Z,14
2022-11-04T18:31:12.563Z,14
2022-11-04T18:36:24.646Z,14
2022-11-04T18:41:36.229Z,13
2022-11-04T18:46:48.325Z,14
2022-11-04T18:51:59.864Z,13
2022-11-04T18:57:11.682Z,13
2022-11-04T19:02:24.752Z,13
2022-11-04T19:07:36.902Z,13
2022-11-04T19:12:48.605Z,13
2022-11-04T19:18:00.773Z,13
2022-11-04T19:23:12.454Z,13
2022-11-04T19:28:49.720Z,13
2022-11-04T19:33:58.984Z,13
2022-11-04T19:39:11.332Z,12
2022-11-04T19:44:22.913Z,13
2022-11-04T19:49:35.008Z,13
2022-11-04T19:54:46.808Z,12
2022-11-04T19:59:58.764Z,12
2022-11-04T20:05:10.821Z,12
2022-11-04T20:10:22.879Z,13
2022-11-04T20:15:34.890Z,13
2022-11-04T20:20:47.100Z,13
2022-11-04T20:25:59.060Z,13
2022-11-04T20:31:11.648Z,13
2022-11-04T20:36:28.345Z,13
2022-11-04T20:41:41.031Z,13
2022-11-04T20:46:52.677Z,13
2022-11-04T20:52:04.664Z,13
2022-11-04T20:57:16.609Z,13
2022-11-04T21:02:29.320Z,13
2022-11-04T21:07:41.657Z,13
2022-11-04T21:12:53.640Z,13
2022-11-04T21:18:06.123Z,12
2022-11-04T21:23:18.827Z,12
2022-11-04T21:28:31.361Z,12
2022-11-04T21:33:43.313Z,12
2022-11-04T21:38:55.528Z,12
2022-11-04T21:44:07.191Z,12
2022-11-04T21:49:19.272Z,12
2022-11-04T21:54:31.295Z,12
2022-11-04T21:59:43.212Z,12
2022-11-04T22:04:55.090Z,12
2022-11-04T22:10:07.771Z,12
2022-11-04T22:15:19.745Z,12
2022-11-04T22:20:31.816Z,12
2022-11-04T22:25:51.262Z,12
2022-11-04T22:31:02.358Z,12
2022-11-04T22:36:14.875Z,12
2022-11-04T22:41:27.610Z,12
2022-11-04T22:46:40.044Z,12
2022-11-04T22:51:52.686Z,11
2022-11-04T22:57:05.490Z,11
2022-11-04T23:02:18.699Z,11
2022-11-04T23:07:31.309Z,11
2022-11-04T23:12:43.966Z,11
2022-11-04T23:17:55.796Z,11
2022-11-04T23:23:09.392Z,12
2022-11-04T23:33:32.675Z,11
2022-11-04T23:38:50.831Z,11
2022-11-04T23:44:03.489Z,12
2022-11-04T23:54:26.421Z,11
2022-11-04T23:59:38.119Z,11
